Time;durP1;ratioP1;P1;durP2;ratioP2;P2;SDS_P1;SDS_P2;PMS_P1;PMS_P2;Temp;Humidity;BMP_temperature;BMP_pressure;BME280_temperature;BME280_humidity;BME280_pressure;Samples;Min_cycle;Max_cycle;Signal;HPM_P1;HPM_P2
2023/08/27 00:00:39;;;;;;;9.00;5.70;;;16.00;99.90;;;;;;5037532;28;20048;-75
2023/08/27 00:03:05;;;;;;;5.88;5.28;;;15.90;99.90;;;;;;5043694;28;20037;-75
2023/08/27 00:05:31;;;;;;;6.50;5.47;;;15.90;99.90;;;;;;5045906;28;20415;-76
2023/08/27 00:07:56;;;;;;;7.85;5.45;;;15.90;99.90;;;;;;5048983;28;20040;-74
2023/08/27 00:10:23;;;;;;;6.10;5.22;;;15.80;99.90;;;;;;5047025;28;20052;-75
2023/08/27 00:12:49;;;;;;;6.65;5.60;;;15.80;99.90;;;;;;5045997;28;20048;-75
2023/08/27 00:15:15;;;;;;;7.13;6.03;;;15.80;99.90;;;;;;5042388;28;20041;-75
2023/08/27 00:17:41;;;;;;;6.60;5.93;;;15.80;99.90;;;;;;5035633;28;20570;-73
2023/08/27 00:20:09;;;;;;;6.93;5.82;;;15.80;99.90;;;;;;5046398;28;20084;-74
2023/08/27 00:22:37;;;;;;;8.23;5.63;;;15.80;99.90;;;;;;5047535;28;20168;-75
2023/08/27 00:25:03;;;;;;;8.35;6.03;;;15.70;99.90;;;;;;5043887;28;20052;-74
2023/08/27 00:27:29;;;;;;;7.03;6.15;;;15.70;99.90;;;;;;5048618;28;20079;-76
2023/08/27 00:29:54;;;;;;;6.65;6.00;;;15.70;99.90;;;;;;5049253;28;20076;-75
2023/08/27 00:32:20;;;;;;;6.50;5.93;;;15.60;99.90;;;;;;5044208;28;20041;-76
2023/08/27 00:34:46;;;;;;;7.13;6.50;;;15.60;99.90;;;;;;5038192;28;20116;-75
2023/08/27 00:37:11;;;;;;;7.18;6.40;;;15.60;99.90;;;;;;5040802;28;20507;-74
2023/08/27 00:39:38;;;;;;;7.72;6.60;;;15.50;99.90;;;;;;5046954;28;20037;-74
2023/08/27 00:42:05;;;;;;;7.40;6.70;;;15.50;99.90;;;;;;5038583;28;20060;-75
2023/08/27 00:44:31;;;;;;;10.52;7.85;;;15.60;99.90;;;;;;5045971;28;20128;-75
2023/08/27 00:46:57;;;;;;;8.30;7.45;;;15.60;99.90;;;;;;5045513;28;20045;-75
2023/08/27 00:49:23;;;;;;;8.35;7.28;;;15.60;99.90;;;;;;5046802;28;20120;-75
2023/08/27 00:51:49;;;;;;;7.68;6.72;;;15.60;99.90;;;;;;5047868;28;20157;-74
2023/08/27 00:54:15;;;;;;;7.95;7.18;;;15.60;99.90;;;;;;5058590;28;20047;-76
2023/08/27 00:56:46;;;;;;;7.97;7.18;;;15.60;99.90;;;;;;5045215;28;20391;-76
2023/08/27 00:59:13;;;;;;;8.57;7.38;;;15.50;99.90;;;;;;5049102;28;20041;-75
2023/08/27 01:01:42;;;;;;;7.27;6.57;;;15.50;99.90;;;;;;5032368;28;20879;-74
2023/08/27 01:04:08;;;;;;;7.97;7.28;;;15.50;99.90;;;;;;5040811;28;20312;-76
2023/08/27 01:06:34;;;;;;;7.13;6.53;;;15.50;99.90;;;;;;5047043;28;20095;-75
2023/08/27 01:09:22;;;;;;;7.88;7.18;;;15.50;99.90;;;;;;5041874;28;20455;-74
2023/08/27 01:11:57;;;;;;;8.20;7.25;;;15.50;99.90;;;;;;5036979;28;20064;-75
2023/08/27 01:14:27;;;;;;;7.90;7.07;;;15.50;99.90;;;;;;5037514;28;20507;-75
2023/08/27 01:16:53;;;;;;;7.72;7.00;;;15.50;99.90;;;;;;5042282;28;20136;-74
2023/08/27 01:19:22;;;;;;;8.45;7.45;;;15.50;99.90;;;;;;5043807;28;20113;-75
2023/08/27 01:21:47;;;;;;;8.70;7.80;;;15.60;99.90;;;;;;5044632;28;20037;-74
2023/08/27 01:24:13;;;;;;;8.13;7.32;;;15.60;99.90;;;;;;5047685;28;20049;-74
2023/08/27 01:26:51;;;;;;;7.30;6.60;;;15.60;99.90;;;;;;5039571;28;20042;-75
2023/08/27 01:29:23;;;;;;;7.60;6.20;;;15.50;99.90;;;;;;5047492;28;20057;-76
2023/08/27 01:32:15;;;;;;;7.53;6.65;;;15.50;99.90;;;;;;5038655;28;20047;-76
2023/08/27 01:34:41;;;;;;;8.45;6.50;;;15.50;99.90;;;;;;5040396;28;20120;-74
2023/08/27 01:37:13;;;;;;;7.50;6.43;;;15.50;99.90;;;;;;5043898;28;20434;-75
2023/08/27 01:39:39;;;;;;;8.05;7.25;;;15.50;99.90;;;;;;5039297;28;20041;-74
2023/08/27 01:42:05;;;;;;;7.72;7.00;;;15.50;99.90;;;;;;5045478;28;20454;-74
2023/08/27 01:44:31;;;;;;;8.18;7.28;;;15.50;99.90;;;;;;5039122;28;20041;-75
2023/08/27 01:46:57;;;;;;;7.20;6.50;;;15.60;99.90;;;;;;5038717;28;20167;-74
2023/08/27 01:49:22;;;;;;;8.93;6.32;;;15.50;99.90;;;;;;5031828;28;20396;-74
2023/08/27 01:51:48;;;;;;;7.38;6.75;;;15.60;99.90;;;;;;5039927;28;20403;-76
2023/08/27 01:54:14;;;;;;;8.77;7.35;;;15.50;99.90;;;;;;5043771;28;20116;-75
2023/08/27 01:56:39;;;;;;;7.07;6.47;;;15.50;99.90;;;;;;5034971;28;20041;-76
2023/08/27 01:59:05;;;;;;;7.63;6.82;;;15.60;99.90;;;;;;5048209;28;20056;-74
2023/08/27 02:01:31;;;;;;;8.02;7.05;;;15.60;99.90;;;;;;5044147;28;20080;-74
2023/08/27 02:03:57;;;;;;;7.30;6.60;;;15.50;99.90;;;;;;5043858;28;20049;-74
2023/08/27 02:06:23;;;;;;;7.85;7.05;;;15.50;99.90;;;;;;5030969;28;20045;-74
2023/08/27 02:08:48;;;;;;;7.45;6.75;;;15.50;99.90;;;;;;5043777;28;20033;-75
2023/08/27 02:11:14;;;;;;;8.57;7.10;;;15.50;99.90;;;;;;5037667;28;20476;-76
2023/08/27 02:13:40;;;;;;;7.00;6.40;;;15.50;99.90;;;;;;5035169;28;20037;-74
2023/08/27 02:16:05;;;;;;;8.10;7.07;;;15.40;99.90;;;;;;5046196;28;20056;-75
2023/08/27 02:18:31;;;;;;;7.65;6.95;;;15.50;99.90;;;;;;5038910;28;20349;-74
2023/08/27 02:20:57;;;;;;;8.07;6.97;;;15.40;99.90;;;;;;5040064;28;20415;-76
2023/08/27 02:23:23;;;;;;;7.38;6.68;;;15.40;99.90;;;;;;5032534;28;20059;-76
2023/08/27 02:25:49;;;;;;;7.53;6.70;;;15.40;99.90;;;;;;5043054;28;20045;-75
2023/08/27 02:28:15;;;;;;;12.27;7.53;;;15.40;99.90;;;;;;5045236;28;20613;-75
2023/08/27 02:30:49;;;;;;;7.35;6.65;;;15.40;99.90;;;;;;5038124;28;20068;-76
2023/08/27 02:33:14;;;;;;;8.32;6.78;;;15.40;99.90;;;;;;5042271;28;20072;-75
2023/08/27 02:35:40;;;;;;;7.80;6.95;;;15.40;99.90;;;;;;5043931;28;20084;-74
2023/08/27 02:38:06;;;;;;;7.82;7.13;;;15.40;99.90;;;;;;5043218;28;20049;-74
2023/08/27 02:40:31;;;;;;;8.68;7.07;;;15.40;99.90;;;;;;5037657;28;20048;-75
2023/08/27 02:42:57;;;;;;;7.32;6.63;;;15.40;99.90;;;;;;5031136;28;20068;-75
2023/08/27 02:45:23;;;;;;;7.63;6.82;;;15.30;99.90;;;;;;5047482;28;20437;-75
2023/08/27 02:47:48;;;;;;;8.50;7.38;;;15.30;99.90;;;;;;5031560;28;20531;-76
2023/08/27 02:50:14;;;;;;;8.65;7.85;;;15.30;99.90;;;;;;5041290;28;20075;-76
2023/08/27 02:52:40;;;;;;;7.80;6.95;;;15.30;99.90;;;;;;5047472;28;20132;-76
2023/08/27 02:55:07;;;;;;;7.20;6.50;;;15.20;99.90;;;;;;5046782;28;20089;-74
2023/08/27 02:57:32;;;;;;;8.27;6.80;;;15.20;99.90;;;;;;5043599;28;20049;-75
2023/08/27 02:59:58;;;;;;;9.43;6.63;;;15.20;99.90;;;;;;5042459;28;20291;-75
2023/08/27 03:02:26;;;;;;;7.72;6.93;;;15.10;99.90;;;;;;5032291;28;20060;-75
2023/08/27 03:04:51;;;;;;;8.00;6.72;;;15.10;99.90;;;;;;5047492;28;20045;-75
2023/08/27 03:07:17;;;;;;;7.28;6.63;;;15.10;99.90;;;;;;5035636;28;20056;-76
2023/08/27 03:09:43;;;;;;;7.85;7.10;;;15.10;99.90;;;;;;5045568;28;20033;-75
2023/08/27 03:12:08;;;;;;;7.72;6.93;;;15.10;99.90;;;;;;5039703;28;20101;-76
2023/08/27 03:14:34;;;;;;;8.40;7.60;;;15.10;99.90;;;;;;5049905;28;20041;-75
2023/08/27 03:17:00;;;;;;;7.35;6.65;;;15.10;99.90;;;;;;5030417;28;20053;-74
2023/08/27 03:19:26;;;;;;;7.38;6.68;;;15.00;99.90;;;;;;5036921;28;20049;-76
2023/08/27 03:21:51;;;;;;;7.90;7.20;;;15.00;99.90;;;;;;5036432;28;20220;-75
2023/08/27 03:24:17;;;;;;;9.15;8.30;;;15.00;99.90;;;;;;5036758;28;20103;-75
2023/08/27 03:26:43;;;;;;;8.27;7.57;;;15.00;99.90;;;;;;5039720;28;20029;-75
2023/08/27 03:29:08;;;;;;;8.23;7.43;;;15.00;99.90;;;;;;5044717;28;20049;-75
2023/08/27 03:31:34;;;;;;;7.82;7.07;;;15.00;99.90;;;;;;5047024;28;20424;-74
2023/08/27 03:34:00;;;;;;;7.43;6.72;;;15.00;99.90;;;;;;5039391;28;20047;-75
2023/08/27 03:36:26;;;;;;;8.20;7.50;;;15.00;99.90;;;;;;5042614;28;20045;-75
2023/08/27 03:38:51;;;;;;;8.40;7.53;;;15.00;99.90;;;;;;5045889;28;20096;-76
2023/08/27 03:41:17;;;;;;;8.13;7.32;;;14.90;99.90;;;;;;5038455;28;20045;-78
2023/08/27 03:43:44;;;;;;;7.70;6.90;;;15.00;99.90;;;;;;5049888;28;20036;-76
2023/08/27 03:46:10;;;;;;;7.60;6.88;;;15.00;99.90;;;;;;5050740;28;20579;-75
2023/08/27 03:48:35;;;;;;;7.97;7.20;;;14.90;99.90;;;;;;5043376;28;20120;-76
2023/08/27 03:51:01;;;;;;;7.85;6.90;;;14.90;99.90;;;;;;5042147;28;20049;-75
2023/08/27 03:53:27;;;;;;;7.97;7.03;;;14.90;99.90;;;;;;5041028;28;20037;-75
2023/08/27 03:55:53;;;;;;;8.48;7.30;;;15.00;99.90;;;;;;5041494;28;20044;-75
2023/08/27 03:58:18;;;;;;;8.50;7.63;;;15.00;99.90;;;;;;5049693;28;20049;-75
2023/08/27 04:00:47;;;;;;;7.97;7.28;;;15.00;99.90;;;;;;5048455;28;20040;-75
2023/08/27 04:03:13;;;;;;;7.80;7.10;;;15.00;99.90;;;;;;5054532;28;20049;-75
2023/08/27 04:05:38;;;;;;;7.80;6.88;;;15.00;99.90;;;;;;5046669;28;20101;-76
2023/08/27 04:08:04;;;;;;;7.70;7.00;;;15.10;99.90;;;;;;5048225;28;20041;-75
2023/08/27 04:10:30;;;;;;;8.65;7.47;;;15.10;99.90;;;;;;5035567;28;20034;-76
2023/08/27 04:12:56;;;;;;;7.55;6.85;;;15.10;99.90;;;;;;5045855;28;20092;-76
2023/08/27 04:15:22;;;;;;;8.45;7.65;;;15.10;99.90;;;;;;5044277;28;20042;-75
2023/08/27 04:17:48;;;;;;;7.55;6.80;;;15.10;99.90;;;;;;5054256;28;20052;-76
2023/08/27 04:20:14;;;;;;;7.45;6.75;;;15.10;99.90;;;;;;5047236;28;20903;-76
2023/08/27 04:22:39;;;;;;;7.38;6.70;;;15.00;99.90;;;;;;5041109;28;20079;-74
2023/08/27 04:25:06;;;;;;;7.65;6.93;;;15.00;99.90;;;;;;5047529;28;20064;-76
2023/08/27 04:27:31;;;;;;;8.10;6.72;;;15.00;99.90;;;;;;5043188;28;20041;-75
2023/08/27 04:29:57;;;;;;;7.70;6.82;;;15.00;99.90;;;;;;5034633;28;20539;-77
2023/08/27 04:32:23;;;;;;;7.95;7.15;;;15.00;99.90;;;;;;5037504;28;20045;-75
2023/08/27 04:34:48;;;;;;;7.50;6.80;;;15.00;99.90;;;;;;5048042;28;20144;-76
2023/08/27 04:37:14;;;;;;;7.70;7.00;;;15.00;99.90;;;;;;5044940;28;20051;-75
2023/08/27 04:39:40;;;;;;;7.15;6.43;;;15.00;99.90;;;;;;5038495;28;20110;-75
2023/08/27 04:42:05;;;;;;;7.80;7.00;;;14.90;99.90;;;;;;5044934;28;20653;-74
2023/08/27 04:44:31;;;;;;;7.55;6.85;;;14.90;99.90;;;;;;5039021;28;20045;-77
2023/08/27 04:46:57;;;;;;;7.97;7.25;;;14.90;99.90;;;;;;5036137;28;20072;-75
2023/08/27 04:49:23;;;;;;;8.48;7.38;;;14.90;99.90;;;;;;5043461;28;20033;-75
2023/08/27 04:51:48;;;;;;;11.00;7.70;;;14.90;99.90;;;;;;5044804;28;20048;-75
2023/08/27 04:54:14;;;;;;;9.38;7.60;;;14.90;99.90;;;;;;5037104;28;20041;-75
2023/08/27 04:56:40;;;;;;;10.45;8.10;;;14.90;99.90;;;;;;5042482;28;20127;-75
2023/08/27 04:59:06;;;;;;;8.40;7.60;;;15.00;99.90;;;;;;5040438;28;20124;-76
2023/08/27 05:01:31;;;;;;;12.68;7.55;;;15.00;99.90;;;;;;5060212;28;20088;-76
2023/08/27 05:03:57;;;;;;;10.25;8.30;;;15.00;99.90;;;;;;5036341;28;20853;-75
2023/08/27 05:06:23;;;;;;;8.50;7.68;;;15.10;99.90;;;;;;5055569;28;20055;-76
2023/08/27 05:08:49;;;;;;;9.32;8.43;;;15.10;99.90;;;;;;5047935;28;20579;-76
2023/08/27 05:11:15;;;;;;;8.30;7.60;;;15.20;99.90;;;;;;5043128;28;20051;-75
2023/08/27 05:13:41;;;;;;;7.88;7.18;;;15.20;99.90;;;;;;5047627;28;20040;-76
2023/08/27 05:16:07;;;;;;;8.68;7.50;;;15.20;99.90;;;;;;5047294;28;20045;-75
2023/08/27 05:18:32;;;;;;;8.20;7.40;;;15.30;99.90;;;;;;5046096;28;20033;-75
2023/08/27 05:20:58;;;;;;;9.85;7.10;;;15.30;99.90;;;;;;5040538;28;20098;-76
2023/08/27 05:23:24;;;;;;;8.27;7.47;;;15.40;99.90;;;;;;5038959;28;20064;-75
2023/08/27 05:25:49;;;;;;;8.82;7.60;;;15.40;99.90;;;;;;5042095;28;20084;-76
2023/08/27 05:28:15;;;;;;;8.40;7.55;;;15.40;99.90;;;;;;5032724;28;20095;-75
2023/08/27 05:30:45;;;;;;;8.80;7.55;;;15.40;99.90;;;;;;5037889;28;20448;-75
2023/08/27 05:33:11;;;;;;;8.73;7.35;;;15.40;99.90;;;;;;5040707;28;20039;-76
2023/08/27 05:35:37;;;;;;;9.07;7.70;;;15.40;99.90;;;;;;5043380;28;20077;-75
2023/08/27 05:38:03;;;;;;;8.82;7.97;;;15.50;99.90;;;;;;5037310;28;20076;-75
2023/08/27 05:40:29;;;;;;;8.98;7.60;;;15.50;99.90;;;;;;5040025;28;20504;-76
2023/08/27 05:42:54;;;;;;;8.95;8.05;;;15.50;99.90;;;;;;5038730;28;20045;-75
2023/08/27 05:45:20;;;;;;;11.15;8.27;;;15.50;99.90;;;;;;5042077;28;20033;-76
2023/08/27 05:47:46;;;;;;;9.95;8.43;;;15.60;99.90;;;;;;5045919;28;20072;-75
2023/08/27 05:50:12;;;;;;;8.60;7.80;;;15.60;99.90;;;;;;5044366;28;20484;-75
2023/08/27 05:52:37;;;;;;;8.82;7.93;;;15.60;99.90;;;;;;5042327;28;20127;-75
2023/08/27 05:55:03;;;;;;;8.80;8.00;;;15.70;99.90;;;;;;5049420;28;20045;-75
2023/08/27 05:57:29;;;;;;;10.48;8.40;;;15.70;99.90;;;;;;5047280;28;20052;-74
2023/08/27 05:59:55;;;;;;;8.82;8.02;;;15.80;99.90;;;;;;5046538;28;20075;-75
2023/08/27 06:02:21;;;;;;;8.25;7.45;;;15.80;99.90;;;;;;5043667;28;20106;-74
2023/08/27 06:04:46;;;;;;;9.02;8.07;;;15.90;99.90;;;;;;5038617;28;20553;-75
2023/08/27 06:07:12;;;;;;;8.30;7.28;;;15.90;99.90;;;;;;5037401;28;20140;-78
2023/08/27 06:09:38;;;;;;;7.88;7.00;;;15.80;99.90;;;;;;5056899;28;20067;-78
2023/08/27 06:12:05;;;;;;;8.55;6.72;;;15.90;99.90;;;;;;5040883;28;20045;-74
2023/08/27 06:14:31;;;;;;;7.90;6.32;;;15.90;99.90;;;;;;5045903;28;20048;-75
2023/08/27 06:16:57;;;;;;;9.38;6.70;;;15.90;99.90;;;;;;5044999;28;20041;-80
2023/08/27 06:19:23;;;;;;;8.85;5.85;;;15.90;99.90;;;;;;5046462;28;20064;-80
2023/08/27 06:21:48;;;;;;;7.53;5.40;;;15.90;99.90;;;;;;5042819;28;20442;-79
2023/08/27 06:24:14;;;;;;;10.43;5.95;;;15.90;99.90;;;;;;5045528;28;20045;-77
2023/08/27 06:26:40;;;;;;;8.20;4.95;;;15.80;99.90;;;;;;5032161;28;20045;-77
2023/08/27 06:29:06;;;;;;;7.63;5.10;;;15.80;99.90;;;;;;5036892;28;20053;-77
2023/08/27 06:31:32;;;;;;;7.63;5.13;;;15.70;99.90;;;;;;5040409;28;20049;-78
2023/08/27 06:33:57;;;;;;;6.00;4.63;;;15.70;99.90;;;;;;5036537;28;20041;-78
2023/08/27 06:36:23;;;;;;;12.05;5.88;;;15.70;99.90;;;;;;5047834;28;20048;-77
2023/08/27 06:38:49;;;;;;;12.00;5.82;;;15.70;99.90;;;;;;5047664;28;20119;-79
2023/08/27 06:41:14;;;;;;;10.23;5.55;;;15.70;99.90;;;;;;5046846;28;20041;-80
2023/08/27 06:43:40;;;;;;;7.50;4.95;;;15.60;99.90;;;;;;5048319;28;20033;-77
2023/08/27 06:46:06;;;;;;;7.22;4.50;;;15.60;99.90;;;;;;5046618;28;20048;-72
2023/08/27 06:48:33;;;;;;;6.57;4.43;;;15.60;99.90;;;;;;5047659;28;20139;-77
2023/08/27 06:50:58;;;;;;;5.72;4.78;;;15.60;99.90;;;;;;5048299;28;20486;-78
2023/08/27 06:53:24;;;;;;;6.57;5.28;;;15.60;99.90;;;;;;5037465;28;20040;-78
2023/08/27 06:55:50;;;;;;;8.07;5.28;;;15.60;99.90;;;;;;5044286;28;20047;-76
2023/08/27 06:58:15;;;;;;;8.32;5.20;;;15.50;99.90;;;;;;5049036;28;20045;-74
2023/08/27 07:00:41;;;;;;;7.07;5.07;;;15.60;99.90;;;;;;5047370;28;20049;-76
2023/08/27 07:03:07;;;;;;;7.70;4.90;;;15.50;99.90;;;;;;5048781;28;20094;-78
2023/08/27 07:05:33;;;;;;;6.88;4.70;;;15.50;99.90;;;;;;5047656;28;20141;-75
2023/08/27 07:07:59;;;;;;;6.60;4.55;;;15.50;99.90;;;;;;5040996;28;20072;-79
2023/08/27 07:10:25;;;;;;;6.90;4.93;;;15.50;99.90;;;;;;5042124;28;20045;-77
2023/08/27 07:12:52;;;;;;;6.07;4.20;;;15.50;99.90;;;;;;5037521;28;20038;-77
2023/08/27 07:15:18;;;;;;;7.55;4.53;;;15.50;99.90;;;;;;5045477;28;20056;-79
2023/08/27 07:17:43;;;;;;;5.68;4.13;;;15.50;99.90;;;;;;5046041;28;20045;-77
2023/08/27 07:20:11;;;;;;;7.50;4.32;;;15.50;99.90;;;;;;5045785;28;20084;-78
2023/08/27 07:22:37;;;;;;;;;;;15.50;99.90;;;;;;5039487;28;20078;-75
2023/08/27 07:25:09;;;;;;;8.63;3.80;;;15.50;99.90;;;;;;5043515;28;19946;-77
2023/08/27 07:27:34;;;;;;;6.43;4.20;;;15.50;99.90;;;;;;5041255;28;20037;-75
2023/08/27 07:30:04;;;;;;;7.13;4.53;;;15.60;99.90;;;;;;5045412;28;20063;-76
2023/08/27 07:32:30;;;;;;;5.65;4.07;;;15.60;99.90;;;;;;5033200;28;20088;-78
2023/08/27 07:34:59;;;;;;;6.05;3.78;;;15.70;99.90;;;;;;5038712;28;20490;-76
2023/08/27 07:37:25;;;;;;;6.53;3.78;;;15.80;99.90;;;;;;5035567;28;20041;-76
2023/08/27 07:39:51;;;;;;;5.35;3.40;;;15.90;99.90;;;;;;5043791;28;20041;-76
2023/08/27 07:42:21;;;;;;;5.60;3.38;;;15.90;99.90;;;;;;5048516;28;20060;-76
2023/08/27 07:44:50;;;;;;;4.75;2.83;;;16.00;99.90;;;;;;5046047;28;20052;-76
2023/08/27 07:47:15;;;;;;;4.32;2.75;;;16.00;99.90;;;;;;5048261;28;20533;-75
2023/08/27 07:49:41;;;;;;;3.92;2.70;;;16.10;99.90;;;;;;5033642;28;20045;-77
2023/08/27 07:52:08;;;;;;;4.13;3.08;;;16.10;99.90;;;;;;5039907;28;20149;-79
2023/08/27 07:54:34;;;;;;;4.03;3.22;;;16.20;99.90;;;;;;5038195;28;20048;-74
2023/08/27 07:57:00;;;;;;;3.40;2.55;;;16.30;99.90;;;;;;5039104;28;20044;-77
2023/08/27 07:59:25;;;;;;;5.40;2.38;;;16.50;99.90;;;;;;5046767;28;20083;-77
2023/08/27 08:01:51;;;;;;;3.58;2.22;;;16.60;99.90;;;;;;5033209;28;20076;-76
2023/08/27 08:04:21;;;;;;;3.50;1.77;;;16.80;99.90;;;;;;5035634;28;20041;-75
2023/08/27 08:06:47;;;;;;;3.78;2.05;;;16.90;99.90;;;;;;5044833;28;20187;-76
2023/08/27 08:09:15;;;;;;;3.00;1.77;;;17.10;99.90;;;;;;5041384;28;20137;-75
2023/08/27 08:11:41;;;;;;;3.33;1.90;;;17.20;99.90;;;;;;5049496;28;20053;-75
2023/08/27 08:14:07;;;;;;;2.78;1.80;;;17.20;99.90;;;;;;5044824;28;20534;-75
2023/08/27 08:16:33;;;;;;;2.72;1.85;;;17.20;99.90;;;;;;5038919;28;20072;-74
2023/08/27 08:18:59;;;;;;;6.22;1.73;;;17.20;99.90;;;;;;5047061;28;20122;-76
2023/08/27 08:21:27;;;;;;;3.88;2.00;;;17.30;99.90;;;;;;5041669;28;20049;-76
2023/08/27 08:23:53;;;;;;;2.85;1.77;;;17.30;99.90;;;;;;5039348;28;20075;-76
2023/08/27 08:26:22;;;;;;;3.97;1.73;;;17.40;99.90;;;;;;5043927;28;20045;-75
2023/08/27 08:28:48;;;;;;;2.58;1.90;;;17.40;99.90;;;;;;5045456;28;20523;-79
2023/08/27 08:31:14;;;;;;;4.22;1.80;;;17.50;99.90;;;;;;5051168;28;20048;-79
2023/08/27 08:33:40;;;;;;;3.33;2.00;;;17.60;99.90;;;;;;5049958;28;20102;-81
2023/08/27 08:36:05;;;;;;;3.97;2.00;;;17.60;99.90;;;;;;5039218;28;20056;-79
2023/08/27 08:38:33;;;;;;;8.18;2.20;;;17.70;99.90;;;;;;5038651;28;20169;-78
2023/08/27 08:41:01;;;;;;;;;;;17.80;99.90;;;;;;5045255;28;20083;-80
2023/08/27 08:43:29;;;;;;;3.00;1.98;;;17.80;99.90;;;;;;5047576;28;19926;-84
2023/08/27 08:46:09;;;;;;;2.88;1.90;;;17.90;99.90;;;;;;5039298;28;20076;-84
2023/08/27 08:48:39;;;;;;;1.92;1.67;;;17.90;99.90;;;;;;5044940;28;20121;-84
2023/08/27 08:51:07;;;;;;;3.60;1.42;;;17.90;99.90;;;;;;5047225;28;20083;-76
2023/08/27 08:53:39;;;;;;;2.75;1.40;;;18.00;99.90;;;;;;5044018;28;20049;-82
2023/08/27 08:56:08;;;;;;;4.10;1.48;;;18.00;99.90;;;;;;5045496;28;20472;-81
2023/08/27 08:58:36;;;;;;;2.92;1.80;;;18.00;99.90;;;;;;5046230;28;20068;-76
2023/08/27 09:01:04;;;;;;;3.22;1.70;;;18.10;99.90;;;;;;5047323;28;20067;-81
2023/08/27 09:03:31;;;;;;;4.22;2.00;;;18.10;99.90;;;;;;5042624;28;20045;-79
2023/08/27 09:05:58;;;;;;;3.17;1.77;;;18.20;99.90;;;;;;5036564;28;20519;-81
2023/08/27 09:08:25;;;;;;;4.32;1.70;;;18.20;99.90;;;;;;5050038;28;20049;-80
2023/08/27 09:10:52;;;;;;;3.15;2.08;;;18.30;99.90;;;;;;5032704;28;20037;-76
2023/08/27 09:13:21;;;;;;;3.88;2.10;;;18.40;99.90;;;;;;5034299;28;20049;-78
2023/08/27 09:15:51;;;;;;;4.47;2.10;;;18.40;99.90;;;;;;5049575;28;20056;-80
2023/08/27 09:18:17;;;;;;;3.58;2.20;;;18.50;99.90;;;;;;5050795;28;20045;-78
2023/08/27 09:20:43;;;;;;;4.03;2.00;;;18.40;99.90;;;;;;5047687;28;20083;-77
2023/08/27 09:23:09;;;;;;;5.53;2.92;;;18.50;99.90;;;;;;5049337;28;20116;-73
2023/08/27 09:25:36;;;;;;;3.13;2.40;;;18.50;99.90;;;;;;5049044;28;20029;-75
2023/08/27 09:28:02;;;;;;;5.50;2.40;;;18.60;99.90;;;;;;5045131;28;20060;-77
2023/08/27 09:30:30;;;;;;;4.72;2.78;;;18.60;99.90;;;;;;5041914;28;20419;-80
2023/08/27 09:32:55;;;;;;;4.68;2.50;;;18.70;99.90;;;;;;5045698;28;20052;-79
2023/08/27 09:35:21;;;;;;;6.43;3.15;;;18.80;99.90;;;;;;5048289;28;20049;-81
2023/08/27 09:37:47;;;;;;;5.88;3.60;;;18.90;99.90;;;;;;5048319;28;20526;-81
2023/08/27 09:40:18;;;;;;;5.30;2.80;;;18.90;99.90;;;;;;5051817;28;20531;-80
2023/08/27 09:42:44;;;;;;;5.43;2.83;;;19.00;99.90;;;;;;5046786;28;20072;-79
2023/08/27 09:45:09;;;;;;;5.40;2.88;;;19.10;99.90;;;;;;5035648;28;20041;-77
2023/08/27 09:47:37;;;;;;;6.30;2.92;;;19.10;99.90;;;;;;5046975;28;20046;-77
2023/08/27 09:50:14;;;;;;;5.32;2.55;;;19.20;99.90;;;;;;5040267;28;20096;-77
2023/08/27 09:52:39;;;;;;;5.25;2.88;;;19.30;99.90;;;;;;5050621;28;20570;-76
2023/08/27 09:55:16;;;;;;;4.05;2.75;;;19.40;99.90;;;;;;5050344;28;20045;-79
2023/08/27 09:57:53;;;;;;;6.13;3.03;;;19.50;99.90;;;;;;5049585;28;20083;-76
2023/08/27 10:00:21;;;;;;;5.82;2.85;;;19.50;99.90;;;;;;5041317;28;20110;-77
2023/08/27 10:02:50;;;;;;;4.82;3.20;;;19.60;99.90;;;;;;5039504;28;20044;-77
2023/08/27 10:05:16;;;;;;;5.25;3.10;;;19.60;99.90;;;;;;5049580;28;20061;-74
2023/08/27 10:07:41;;;;;;;6.13;2.83;;;19.60;99.90;;;;;;5033859;28;20743;-77
2023/08/27 10:10:08;;;;;;;9.23;3.22;;;19.60;99.90;;;;;;5038606;28;20071;-75
2023/08/27 10:12:35;;;;;;;4.60;2.70;;;19.60;99.90;;;;;;5050147;28;20033;-77
2023/08/27 10:15:03;;;;;;;6.25;2.70;;;19.70;99.90;;;;;;5049707;28;20052;-76
2023/08/27 10:17:30;;;;;;;4.18;2.60;;;19.80;99.90;;;;;;5042509;28;20047;-73
2023/08/27 10:19:58;;;;;;;8.07;3.25;;;19.80;99.90;;;;;;5041058;28;20041;-76
2023/08/27 10:22:24;;;;;;;5.25;2.60;;;19.80;99.90;;;;;;5050449;28;20040;-79
2023/08/27 10:24:51;;;;;;;4.60;2.63;;;19.80;99.90;;;;;;5049726;28;20037;-77
2023/08/27 10:27:17;;;;;;;4.10;2.53;;;19.80;99.90;;;;;;5041854;28;20083;-81
2023/08/27 10:29:45;;;;;;;3.78;2.25;;;19.80;99.90;;;;;;5039666;28;20300;-78
2023/08/27 10:32:10;;;;;;;3.63;2.45;;;19.80;99.90;;;;;;5042496;28;20060;-79
2023/08/27 10:34:36;;;;;;;7.63;2.80;;;19.80;99.90;;;;;;5049502;28;20045;-78
2023/08/27 10:37:07;;;;;;;3.72;2.58;;;19.80;99.90;;;;;;5045474;28;20041;-76
2023/08/27 10:39:36;;;;;;;4.78;2.50;;;19.80;99.90;;;;;;5044098;28;20086;-74
2023/08/27 10:42:03;;;;;;;5.50;2.45;;;19.80;99.90;;;;;;5049018;28;20041;-75
2023/08/27 10:44:29;;;;;;;;;;;19.80;99.90;;;;;;5038434;28;20710;-74
2023/08/27 10:47:15;;;;;;;4.57;2.53;;;19.80;99.90;;;;;;5037207;28;19925;-74
2023/08/27 10:49:44;;;;;;;4.07;2.15;;;19.70;99.90;;;;;;5037386;28;20095;-82
2023/08/27 10:52:22;;;;;;;4.78;2.28;;;19.70;99.90;;;;;;5042481;28;20562;-82
2023/08/27 10:54:58;;;;;;;7.10;2.53;;;19.60;99.90;;;;;;5057161;28;20163;-83
2023/08/27 10:57:24;;;;;;;5.45;2.13;;;19.50;99.90;;;;;;5042959;28;20052;-81
2023/08/27 10:59:52;;;;;;;4.40;1.90;;;19.60;99.90;;;;;;5046421;28;20036;-79
2023/08/27 11:02:18;;;;;;;4.15;2.10;;;19.70;99.90;;;;;;5048007;28;20124;-78
2023/08/27 11:04:49;;;;;;;6.28;2.47;;;19.90;99.90;;;;;;5041655;28;20061;-77
2023/08/27 11:07:17;;;;;;;3.60;2.10;;;20.00;99.90;;;;;;5039802;28;20041;-81
2023/08/27 11:09:55;;;;;;;6.53;2.30;;;20.00;99.90;;;;;;5041048;28;20052;-78
2023/08/27 11:12:32;;;;;;;7.43;2.28;;;20.00;99.90;;;;;;5045534;28;20049;-78
2023/08/27 11:15:10;;;;;;;4.47;2.30;;;20.00;99.90;;;;;;5043443;28;20044;-79
2023/08/27 11:17:37;;;;;;;4.07;2.13;;;20.00;99.90;;;;;;5046303;28;20076;-85
2023/08/27 11:20:24;;;;;;;5.80;2.30;;;20.10;99.90;;;;;;5047769;28;20045;-85
2023/08/27 11:23:01;;;;;;;4.20;2.25;;;20.20;99.90;;;;;;5041434;28;20492;-77
2023/08/27 11:25:29;;;;;;;3.35;2.03;;;20.20;99.90;;;;;;5038925;28;20055;-78
2023/08/27 11:27:58;;;;;;;4.78;2.10;;;20.30;99.90;;;;;;5033751;28;20125;-77
2023/08/27 11:30:25;;;;;;;2.78;1.90;;;20.40;99.90;;;;;;5039120;28;20059;-79
2023/08/27 11:32:53;;;;;;;5.45;2.55;;;20.50;99.90;;;;;;5043180;28;20395;-81
2023/08/27 11:35:26;;;;;;;5.30;2.20;;;20.60;99.90;;;;;;5035597;28;20053;-83
2023/08/27 11:37:52;;;;;;;3.92;2.10;;;20.80;99.90;;;;;;5034027;28;20072;-78
2023/08/27 11:40:22;;;;;;;4.85;1.92;;;20.80;99.90;;;;;;5046707;28;20075;-76
2023/08/27 11:42:52;;;;;;;4.80;1.83;;;20.80;99.90;;;;;;5037844;28;20075;-75
2023/08/27 11:45:29;;;;;;;6.88;2.00;;;20.80;99.90;;;;;;5047614;28;20048;-76
2023/08/27 11:47:55;;;;;;;;;;;20.70;99.90;;;;;;5046281;28;20072;-76
2023/08/27 11:50:21;;;;;;;3.13;1.60;;;20.50;99.90;;;;;;5047842;28;19975;-75
2023/08/27 11:52:47;;;;;;;4.27;1.77;;;20.50;99.90;;;;;;5047337;28;20519;-74
2023/08/27 11:55:13;;;;;;;3.05;1.45;;;20.40;99.90;;;;;;5043403;28;20353;-74
2023/08/27 11:57:40;;;;;;;2.40;1.48;;;20.40;99.90;;;;;;5044506;28;20045;-74
2023/08/27 12:00:11;;;;;;;4.30;1.70;;;20.30;99.90;;;;;;5051550;28;20484;-76
2023/08/27 12:02:38;;;;;;;6.07;2.10;;;20.30;99.90;;;;;;5049598;28;20057;-76
2023/08/27 12:05:08;;;;;;;3.90;1.60;;;20.30;99.90;;;;;;5040187;28;20060;-75
2023/08/27 12:07:34;;;;;;;3.15;1.30;;;20.30;99.90;;;;;;5048837;28;20751;-76
2023/08/27 12:10:11;;;;;;;2.85;1.27;;;20.20;99.90;;;;;;5045832;28;20389;-75
2023/08/27 12:12:41;;;;;;;3.88;1.67;;;20.10;99.90;;;;;;5055976;28;20507;-76
2023/08/27 12:15:08;;;;;;;3.30;1.42;;;20.00;99.90;;;;;;5035702;28;20052;-72
2023/08/27 12:17:35;;;;;;;2.95;1.40;;;19.90;99.90;;;;;;5044675;28;20071;-73
2023/08/27 12:20:05;;;;;;;3.60;1.60;;;19.80;99.90;;;;;;5041910;28;20485;-73
2023/08/27 12:22:39;;;;;;;4.28;1.90;;;19.80;99.90;;;;;;5047898;28;20120;-73
2023/08/27 12:25:06;;;;;;;6.95;1.67;;;19.70;99.90;;;;;;5048681;28;20052;-72
2023/08/27 12:27:32;;;;;;;7.28;1.90;;;19.60;99.90;;;;;;5048691;28;20053;-73
2023/08/27 12:29:57;;;;;;;3.95;1.90;;;19.50;99.90;;;;;;5050468;28;20048;-74
2023/08/27 12:32:32;;;;;;;4.00;1.80;;;19.40;99.90;;;;;;5050363;28;20033;-75
2023/08/27 12:34:58;;;;;;;3.40;1.80;;;19.20;99.90;;;;;;5041359;28;20507;-73
2023/08/27 12:37:27;;;;;;;4.43;1.70;;;19.10;99.90;;;;;;5043514;28;20132;-75
2023/08/27 12:39:53;;;;;;;1.98;1.50;;;18.90;99.90;;;;;;5050922;28;20275;-74
2023/08/27 12:42:22;;;;;;;2.30;1.40;;;18.80;99.90;;;;;;5050273;28;20135;-75
2023/08/27 12:44:48;;;;;;;2.55;1.42;;;18.70;99.90;;;;;;5038353;28;20043;-75
2023/08/27 12:47:13;;;;;;;3.47;1.40;;;18.60;99.90;;;;;;5026564;28;20408;-78